Time;durP1;ratioP1;P1;durP2;ratioP2;P2;SDS_P1;SDS_P2;PMS_P1;PMS_P2;Temp;Humidity;BMP_temperature;BMP_pressure;BME280_temperature;BME280_humidity;BME280_pressure;Samples;Min_cycle;Max_cycle;Signal;HPM_P1;HPM_P2
2021/12/31 00:01:40;;;;;;;15.13;4.00;;;12.60;99.90;;;;;;5094791;28;20047;-70
2021/12/31 00:04:06;;;;;;;10.43;3.20;;;12.50;99.90;;;;;;5094611;28;20047;-71
2021/12/31 00:06:32;;;;;;;14.85;4.45;;;12.60;99.90;;;;;;5093085;28;20036;-71
2021/12/31 00:08:57;;;;;;;18.33;3.72;;;12.50;99.90;;;;;;5094348;28;20051;-71
2021/12/31 00:11:23;;;;;;;14.43;3.17;;;12.60;99.90;;;;;;5094452;28;20040;-71
2021/12/31 00:13:49;;;;;;;19.42;4.32;;;12.60;99.90;;;;;;5093120;28;20522;-70
2021/12/31 00:16:14;;;;;;;12.45;3.88;;;12.70;99.90;;;;;;5092505;28;20119;-71
2021/12/31 00:18:40;;;;;;;15.05;4.93;;;12.60;99.90;;;;;;5094342;28;20039;-71
2021/12/31 00:21:06;;;;;;;14.57;4.00;;;12.70;99.90;;;;;;5093036;28;20392;-71
2021/12/31 00:23:32;;;;;;;18.17;4.93;;;12.60;99.90;;;;;;5094347;28;20036;-71
2021/12/31 00:25:57;;;;;;;14.82;3.70;;;12.60;99.90;;;;;;5093887;28;20043;-71
2021/12/31 00:28:23;;;;;;;20.17;5.70;;;12.60;99.90;;;;;;5094033;28;20032;-71
2021/12/31 00:30:53;;;;;;;16.35;4.10;;;12.60;99.90;;;;;;5094438;28;20040;-71
2021/12/31 00:33:20;;;;;;;12.80;4.10;;;12.60;99.90;;;;;;5093986;28;20040;-71
2021/12/31 00:35:46;;;;;;;14.07;3.80;;;12.50;99.90;;;;;;5092889;28;20036;-71
2021/12/31 00:38:12;;;;;;;17.38;3.95;;;12.50;99.90;;;;;;5093612;28;20032;-71
2021/12/31 00:40:37;;;;;;;14.20;4.15;;;12.40;99.90;;;;;;5093910;28;20089;-71
2021/12/31 00:43:06;;;;;;;17.23;3.90;;;12.40;99.90;;;;;;5094347;28;20086;-71
2021/12/31 00:45:34;;;;;;;13.95;4.00;;;12.40;99.90;;;;;;5093540;28;20089;-71
2021/12/31 00:48:00;;;;;;;15.73;3.78;;;12.50;99.90;;;;;;5093611;28;20509;-71
2021/12/31 00:50:25;;;;;;;16.38;3.90;;;12.50;99.90;;;;;;5093723;28;20071;-70
2021/12/31 00:52:51;;;;;;;17.27;3.88;;;12.40;99.90;;;;;;5093444;28;20032;-71
2021/12/31 00:55:16;;;;;;;23.23;4.57;;;12.40;99.90;;;;;;5094221;28;20035;-71
2021/12/31 00:57:42;;;;;;;17.35;5.22;;;12.50;99.90;;;;;;5093484;28;20039;-71
2021/12/31 01:00:12;;;;;;;20.02;3.92;;;12.40;99.90;;;;;;5092143;28;20055;-71
2021/12/31 01:02:39;;;;;;;21.75;4.72;;;12.40;99.90;;;;;;5093373;28;20074;-71
2021/12/31 01:05:05;;;;;;;18.92;4.93;;;12.50;99.90;;;;;;5092532;28;20122;-71
2021/12/31 01:07:31;;;;;;;19.88;4.78;;;12.40;99.90;;;;;;5093052;28;20135;-70
2021/12/31 01:09:57;;;;;;;16.73;4.55;;;12.40;99.90;;;;;;5093297;28;20043;-71
2021/12/31 01:12:25;;;;;;;17.40;4.65;;;12.40;99.90;;;;;;5093153;28;20036;-71
2021/12/31 01:15:07;;;;;;;16.50;5.40;;;12.40;99.90;;;;;;5093453;28;20078;-70
2021/12/31 01:18:03;;;;;;;16.75;5.05;;;12.30;99.90;;;;;;5091481;28;20044;-71
2021/12/31 01:20:22;;;;;;;16.45;4.80;;;12.30;99.90;;;;;;5093174;28;20047;-71
2021/12/31 01:22:48;;;;;;;15.93;4.78;;;12.40;99.90;;;;;;5075015;28;20047;-71
2021/12/31 01:25:14;;;;;;;15.23;4.20;;;12.40;99.90;;;;;;5091845;28;20050;-71
2021/12/31 01:27:40;;;;;;;16.48;4.50;;;12.40;99.90;;;;;;5074817;28;20055;-71
2021/12/31 01:30:08;;;;;;;17.80;4.57;;;12.40;99.90;;;;;;5093439;28;20032;-71
2021/12/31 01:32:34;;;;;;;20.08;5.10;;;12.30;99.90;;;;;;5092356;28;20082;-71
2021/12/31 01:35:00;;;;;;;14.07;4.20;;;12.30;99.90;;;;;;5092071;28;20068;-71
2021/12/31 01:37:26;;;;;;;17.42;4.85;;;12.40;99.90;;;;;;5091370;28;20036;-71
2021/12/31 01:39:52;;;;;;;18.48;4.60;;;12.30;99.90;;;;;;5093115;28;20082;-70
2021/12/31 01:42:23;;;;;;;13.63;3.42;;;12.40;99.90;;;;;;5074989;28;20039;-71
2021/12/31 01:44:57;;;;;;;20.10;4.80;;;12.40;99.90;;;;;;5093260;28;20107;-71
2021/12/31 01:47:33;;;;;;;24.98;5.75;;;12.40;99.90;;;;;;5093182;28;20044;-71
2021/12/31 01:50:01;;;;;;;22.55;5.45;;;12.30;99.90;;;;;;5097405;28;20384;-71
2021/12/31 01:52:27;;;;;;;22.55;5.95;;;12.40;99.90;;;;;;5095706;28;20036;-71
2021/12/31 01:54:53;;;;;;;21.08;4.32;;;12.40;99.90;;;;;;5095612;28;20040;-71
2021/12/31 01:57:20;;;;;;;17.23;5.43;;;12.30;99.90;;;;;;5096648;28;20040;-70
2021/12/31 01:59:45;;;;;;;24.92;5.32;;;12.30;99.90;;;;;;5097353;28;20051;-71
2021/12/31 02:02:12;;;;;;;20.33;4.97;;;12.30;99.90;;;;;;5095690;28;20032;-71
2021/12/31 02:04:39;;;;;;;21.08;4.25;;;12.30;99.90;;;;;;5095659;28;20124;-71
2021/12/31 02:07:06;;;;;;;19.40;5.47;;;12.30;99.90;;;;;;5095397;28;20125;-71
2021/12/31 02:09:37;;;;;;;17.25;5.00;;;12.30;99.90;;;;;;5096589;28;20028;-71
2021/12/31 02:12:04;;;;;;;18.23;4.50;;;12.30;99.90;;;;;;5096423;28;20503;-71
2021/12/31 02:14:31;;;;;;;15.55;4.40;;;12.30;99.90;;;;;;5095671;28;20072;-72
2021/12/31 02:16:57;;;;;;;33.38;6.22;;;12.40;99.90;;;;;;5094918;28;20450;-72
2021/12/31 02:19:29;;;;;;;11.25;4.22;;;12.40;99.90;;;;;;5096514;28;20078;-72
2021/12/31 02:21:57;;;;;;;17.17;4.75;;;12.30;99.90;;;;;;5096686;28;20044;-72
2021/12/31 02:24:23;;;;;;;19.70;5.43;;;12.30;99.90;;;;;;5095371;28;20415;-72
2021/12/31 02:26:50;;;;;;;16.67;4.07;;;12.30;99.90;;;;;;5095983;28;20058;-72
2021/12/31 02:29:16;;;;;;;17.75;4.82;;;12.40;99.90;;;;;;5097169;28;20062;-71
2021/12/31 02:31:42;;;;;;;12.13;4.13;;;12.30;99.90;;;;;;5096687;28;20036;-72
2021/12/31 02:34:08;;;;;;;15.82;5.32;;;12.30;99.90;;;;;;5095113;28;20040;-72
2021/12/31 02:36:34;;;;;;;13.80;3.90;;;12.30;99.90;;;;;;5094288;28;20504;-72
2021/12/31 02:38:59;;;;;;;15.52;4.03;;;12.30;99.90;;;;;;5096425;28;20040;-72
2021/12/31 02:41:25;;;;;;;14.15;4.78;;;12.30;99.90;;;;;;5096590;28;20040;-72
2021/12/31 02:43:50;;;;;;;14.18;5.60;;;12.30;99.90;;;;;;5096389;28;20499;-72
2021/12/31 02:46:16;;;;;;;15.07;4.32;;;12.30;99.90;;;;;;5095540;28;20032;-71
2021/12/31 02:48:41;;;;;;;16.02;4.45;;;12.30;99.90;;;;;;5094650;28;20036;-71
2021/12/31 02:51:07;;;;;;;13.20;3.60;;;12.40;99.90;;;;;;5095685;28;20048;-72
2021/12/31 02:53:41;;;;;;;11.50;4.07;;;12.40;99.90;;;;;;5096028;28;20039;-71
2021/12/31 02:56:09;;;;;;;13.65;4.03;;;12.40;99.90;;;;;;5095787;28;20036;-72
2021/12/31 02:58:36;;;;;;;12.30;4.43;;;12.40;99.90;;;;;;5094619;28;20047;-71
2021/12/31 03:01:04;;;;;;;11.82;4.38;;;12.50;99.90;;;;;;5094933;28;20047;-71
2021/12/31 03:03:32;;;;;;;16.35;4.70;;;12.50;99.90;;;;;;5095835;28;20379;-72
2021/12/31 03:05:58;;;;;;;8.95;4.18;;;12.60;99.90;;;;;;5077050;28;20059;-72
2021/12/31 03:08:29;;;;;;;14.02;4.13;;;12.50;99.90;;;;;;5095954;28;20142;-71
2021/12/31 03:10:56;;;;;;;12.98;3.55;;;12.50;99.90;;;;;;5094390;28;20040;-72
2021/12/31 03:13:23;;;;;;;12.77;4.30;;;12.60;99.90;;;;;;5095629;28;20047;-72
2021/12/31 03:15:52;;;;;;;9.95;4.20;;;12.50;99.90;;;;;;5093937;28;20044;-72
2021/12/31 03:18:19;;;;;;;10.90;3.80;;;12.60;99.90;;;;;;5093977;28;20160;-72
2021/12/31 03:20:57;;;;;;;10.55;3.63;;;12.50;99.90;;;;;;5095713;28;20051;-72
2021/12/31 03:23:27;;;;;;;8.38;3.20;;;12.60;99.90;;;;;;5094207;28;20048;-71
2021/12/31 03:25:53;;;;;;;12.95;4.07;;;12.60;99.90;;;;;;5095252;28;20050;-72
2021/12/31 03:28:20;;;;;;;10.88;3.95;;;12.60;99.90;;;;;;5095282;28;20119;-72
2021/12/31 03:30:47;;;;;;;4.82;2.95;;;12.60;99.90;;;;;;5093970;28;20040;-72
2021/12/31 03:33:14;;;;;;;10.02;3.53;;;12.60;99.90;;;;;;5093974;28;20048;-72
2021/12/31 03:35:40;;;;;;;20.20;4.38;;;12.70;99.90;;;;;;5095058;28;20043;-72
2021/12/31 03:38:05;;;;;;;10.20;4.25;;;12.70;99.90;;;;;;5093439;28;20051;-71
2021/12/31 03:40:31;;;;;;;12.07;3.65;;;12.70;99.90;;;;;;5095524;28;20051;-71
2021/12/31 03:42:57;;;;;;;25.83;4.45;;;12.70;99.90;;;;;;5093723;28;20048;-72
2021/12/31 03:45:23;;;;;;;9.77;3.65;;;12.80;99.90;;;;;;5094788;28;20062;-72
2021/12/31 03:47:48;;;;;;;10.65;3.25;;;12.80;99.90;;;;;;5093704;28;20131;-72
2021/12/31 03:50:14;;;;;;;7.78;3.25;;;12.70;99.90;;;;;;5094809;28;20036;-72
2021/12/31 03:52:40;;;;;;;14.30;3.35;;;12.60;99.90;;;;;;5093284;28;20035;-71
2021/12/31 03:55:08;;;;;;;17.92;4.10;;;12.70;99.90;;;;;;5095104;28;20050;-71
2021/12/31 03:57:34;;;;;;;6.53;3.10;;;12.70;99.90;;;;;;5092874;28;20539;-71
2021/12/31 04:00:00;;;;;;;8.90;3.38;;;12.70;99.90;;;;;;5094735;28;20529;-72
2021/12/31 04:02:25;;;;;;;9.52;3.08;;;12.70;99.90;;;;;;5093131;28;20040;-71
2021/12/31 04:04:51;;;;;;;11.70;3.10;;;12.70;99.90;;;;;;5095001;28;20035;-72
2021/12/31 04:07:17;;;;;;;9.48;2.55;;;12.70;99.90;;;;;;5092708;28;20078;-72
2021/12/31 04:09:42;;;;;;;10.50;3.00;;;12.70;99.90;;;;;;5094416;28;20384;-72
2021/12/31 04:12:08;;;;;;;10.93;3.47;;;12.70;99.90;;;;;;5094179;28;20043;-72
2021/12/31 04:14:34;;;;;;;10.52;2.83;;;12.70;99.90;;;;;;5093199;28;20152;-71
2021/12/31 04:17:00;;;;;;;9.25;3.47;;;12.70;99.90;;;;;;5094283;28;20036;-71
2021/12/31 04:19:25;;;;;;;9.77;3.67;;;12.70;99.90;;;;;;5094980;28;20349;-72
2021/12/31 04:21:51;;;;;;;9.05;3.20;;;12.70;99.90;;;;;;5092797;28;20062;-72
2021/12/31 04:24:30;;;;;;;9.77;2.83;;;12.70;99.90;;;;;;5093210;28;20065;-71
2021/12/31 04:26:55;;;;;;;9.65;3.72;;;12.70;99.90;;;;;;5093755;28;20068;-72
2021/12/31 04:29:22;;;;;;;12.40;4.55;;;12.70;99.90;;;;;;5093981;28;20128;-72
2021/12/31 04:31:47;;;;;;;11.43;3.20;;;12.70;99.90;;;;;;5093845;28;20153;-72
2021/12/31 04:34:13;;;;;;;10.73;2.90;;;12.70;99.90;;;;;;5094467;28;20036;-71
2021/12/31 04:36:38;;;;;;;9.32;2.95;;;12.70;99.90;;;;;;5092338;28;20050;-72
2021/12/31 04:39:04;;;;;;;13.02;3.75;;;12.80;99.90;;;;;;5093840;28;20040;-71
2021/12/31 04:41:30;;;;;;;8.68;3.53;;;12.80;99.90;;;;;;5094004;28;20047;-72
2021/12/31 04:43:55;;;;;;;10.38;2.40;;;12.80;99.90;;;;;;5092826;28;20353;-72
2021/12/31 04:46:21;;;;;;;8.52;2.83;;;12.80;99.90;;;;;;5093419;28;20075;-72
2021/12/31 04:48:46;;;;;;;7.90;2.78;;;12.90;99.90;;;;;;5093490;28;20114;-71
2021/12/31 04:51:12;;;;;;;14.85;3.00;;;12.80;99.90;;;;;;5093472;28;20036;-72
2021/12/31 04:53:38;;;;;;;11.27;2.70;;;12.90;99.90;;;;;;5092455;28;20073;-71
2021/12/31 04:56:03;;;;;;;5.57;2.80;;;12.90;99.90;;;;;;5093390;28;20031;-72
2021/12/31 04:58:29;;;;;;;6.15;2.35;;;13.00;99.90;;;;;;5093814;28;20483;-72
2021/12/31 05:00:54;;;;;;;14.10;2.95;;;13.00;99.90;;;;;;5093566;28;20040;-72
2021/12/31 05:03:20;;;;;;;7.40;2.53;;;13.10;99.90;;;;;;5094023;28;20491;-72
2021/12/31 05:05:46;;;;;;;9.35;2.53;;;13.00;99.90;;;;;;5093174;28;20040;-72
2021/12/31 05:08:12;;;;;;;10.13;2.80;;;13.10;99.90;;;;;;5093533;28;20032;-72
2021/12/31 05:10:38;;;;;;;9.50;2.63;;;13.00;99.90;;;;;;5093862;28;20047;-72
2021/12/31 05:13:05;;;;;;;7.55;2.50;;;13.00;99.90;;;;;;5093285;28;20036;-72
2021/12/31 05:15:35;;;;;;;8.80;2.75;;;12.90;99.90;;;;;;5093458;28;20357;-71
2021/12/31 05:18:01;;;;;;;7.63;2.85;;;12.90;99.90;;;;;;5093896;28;20044;-72
2021/12/31 05:20:27;;;;;;;5.10;2.55;;;12.90;99.90;;;;;;5092702;28;20123;-72
2021/12/31 05:22:53;;;;;;;8.40;2.80;;;12.80;99.90;;;;;;5094709;28;20094;-72
2021/12/31 05:25:19;;;;;;;8.02;3.30;;;12.80;99.90;;;;;;5096250;28;20101;-72
2021/12/31 05:27:45;;;;;;;8.43;3.90;;;12.70;99.90;;;;;;5079138;28;20039;-72
2021/12/31 05:30:11;;;;;;;9.02;2.95;;;12.70;99.90;;;;;;5096576;28;20379;-72
2021/12/31 05:32:37;;;;;;;6.93;2.95;;;12.70;99.90;;;;;;5098230;28;20078;-72
2021/12/31 05:35:03;;;;;;;8.45;4.13;;;12.70;99.90;;;;;;5096619;28;20036;-72
2021/12/31 05:37:28;;;;;;;6.95;4.35;;;12.70;99.90;;;;;;5096889;28;20115;-72
2021/12/31 05:39:54;;;;;;;5.72;4.07;;;12.70;99.90;;;;;;5097506;28;20051;-72
2021/12/31 05:42:19;;;;;;;11.68;5.35;;;12.70;99.90;;;;;;5097527;28;20043;-72
2021/12/31 05:44:45;;;;;;;7.18;4.30;;;12.70;99.90;;;;;;5097230;28;20130;-72
2021/12/31 05:47:11;;;;;;;11.05;4.90;;;12.80;99.90;;;;;;5078865;28;20039;-72
2021/12/31 05:49:36;;;;;;;9.27;4.45;;;12.80;99.90;;;;;;5097443;28;20396;-72
2021/12/31 05:52:03;;;;;;;9.95;4.75;;;12.70;99.90;;;;;;5095788;28;20032;-72
2021/12/31 05:54:28;;;;;;;8.45;5.18;;;12.80;99.90;;;;;;5079197;28;20131;-72
2021/12/31 05:56:54;;;;;;;6.93;4.35;;;12.70;99.90;;;;;;5097015;28;20107;-72
2021/12/31 05:59:20;;;;;;;7.90;4.72;;;12.70;99.90;;;;;;5097108;28;20058;-72
2021/12/31 06:01:46;;;;;;;10.05;4.80;;;12.70;99.90;;;;;;5095890;28;20048;-72
2021/12/31 06:04:11;;;;;;;8.98;4.32;;;12.60;99.90;;;;;;5095459;28;20473;-72
2021/12/31 06:06:37;;;;;;;7.65;4.63;;;12.70;99.90;;;;;;5096401;28;20294;-71
2021/12/31 06:09:05;;;;;;;7.97;3.67;;;12.70;99.90;;;;;;5096727;28;20117;-71
2021/12/31 06:11:32;;;;;;;8.15;4.30;;;12.70;99.90;;;;;;5096926;28;20048;-72
2021/12/31 06:14:02;;;;;;;7.18;4.05;;;12.70;99.90;;;;;;5096583;28;20111;-72
2021/12/31 06:16:28;;;;;;;7.72;4.00;;;12.80;99.90;;;;;;5095238;28;20155;-71
2021/12/31 06:18:54;;;;;;;6.57;3.90;;;12.90;99.90;;;;;;5096474;28;20486;-72
2021/12/31 06:21:20;;;;;;;6.97;3.33;;;12.90;99.90;;;;;;5096564;28;20043;-72
2021/12/31 06:23:46;;;;;;;5.28;3.38;;;12.80;99.90;;;;;;5095088;28;20051;-72
2021/12/31 06:26:13;;;;;;;9.32;3.60;;;12.80;99.90;;;;;;5094914;28;20044;-72
2021/12/31 06:28:39;;;;;;;7.93;3.83;;;12.80;99.90;;;;;;5096777;28;20047;-72
2021/12/31 06:31:04;;;;;;;6.78;3.08;;;12.80;99.90;;;;;;5095707;28;20039;-72
2021/12/31 06:33:30;;;;;;;8.10;3.33;;;12.80;99.90;;;;;;5096070;28;20031;-72
2021/12/31 06:35:55;;;;;;;11.05;3.20;;;12.80;99.90;;;;;;5095745;28;20559;-72
2021/12/31 06:38:21;;;;;;;5.40;3.20;;;12.90;99.90;;;;;;5096255;28;20044;-72
2021/12/31 06:40:47;;;;;;;7.88;2.88;;;12.90;99.90;;;;;;5095149;28;20040;-71
2021/12/31 06:43:14;;;;;;;10.10;2.72;;;12.90;99.90;;;;;;5095882;28;20518;-72
2021/12/31 06:45:39;;;;;;;6.35;3.15;;;12.80;99.90;;;;;;5095729;28;20115;-71
2021/12/31 06:48:05;;;;;;;6.28;2.72;;;12.80;99.90;;;;;;5094856;28;20036;-71
2021/12/31 06:50:30;;;;;;;6.85;2.88;;;12.90;99.90;;;;;;5094401;28;20450;-72
2021/12/31 06:52:56;;;;;;;5.03;2.90;;;12.80;99.90;;;;;;5095999;28;20068;-72
2021/12/31 06:55:22;;;;;;;8.65;2.90;;;12.80;99.90;;;;;;5096097;28;20036;-72
2021/12/31 06:57:49;;;;;;;5.80;2.90;;;12.80;99.90;;;;;;5095914;28;20051;-72
2021/12/31 07:00:16;;;;;;;5.75;2.67;;;12.80;99.90;;;;;;5094406;28;20051;-72
2021/12/31 07:02:41;;;;;;;6.15;2.33;;;12.70;99.90;;;;;;5095941;28;20036;-71
2021/12/31 07:05:08;;;;;;;6.80;2.90;;;12.80;99.90;;;;;;5095865;28;20066;-72
2021/12/31 07:07:43;;;;;;;7.93;2.72;;;12.80;99.90;;;;;;5095074;28;20507;-72
2021/12/31 07:10:09;;;;;;;6.10;2.65;;;12.70;99.90;;;;;;5095736;28;20058;-73
2021/12/31 07:12:35;;;;;;;5.55;2.20;;;12.80;99.90;;;;;;5096227;28;20036;-71
2021/12/31 07:15:00;;;;;;;9.13;3.05;;;12.80;99.90;;;;;;5099207;28;20034;-72
2021/12/31 07:17:28;;;;;;;7.20;2.70;;;12.80;99.90;;;;;;5115689;28;20031;-71
2021/12/31 07:19:54;;;;;;;6.00;3.47;;;12.80;99.90;;;;;;5115853;27;20104;-71
2021/12/31 07:22:21;;;;;;;9.00;3.47;;;12.80;99.90;;;;;;5115729;28;20035;-71
2021/12/31 07:24:47;;;;;;;5.13;2.38;;;12.80;99.90;;;;;;5114224;28;20039;-71
2021/12/31 07:27:12;;;;;;;5.88;2.10;;;12.80;99.90;;;;;;5115163;28;20092;-71
2021/12/31 07:29:38;;;;;;;4.75;2.53;;;12.80;99.90;;;;;;5115381;28;20085;-71
2021/12/31 07:32:04;;;;;;;9.30;2.08;;;12.80;99.90;;;;;;5115905;28;20050;-70
2021/12/31 07:34:29;;;;;;;5.95;2.30;;;12.80;99.90;;;;;;5115916;28;20055;-71
2021/12/31 07:36:55;;;;;;;4.70;2.42;;;12.70;99.90;;;;;;5115131;28;20131;-70
2021/12/31 07:39:24;;;;;;;7.75;2.30;;;12.70;99.90;;;;;;5115217;28;20042;-71
2021/12/31 07:41:50;;;;;;;3.40;2.30;;;12.70;99.90;;;;;;5114543;28;20039;-71
2021/12/31 07:44:16;;;;;;;5.43;2.10;;;12.70;99.90;;;;;;5114206;28;20051;-71
2021/12/31 07:46:43;;;;;;;4.47;2.72;;;12.60;99.90;;;;;;5114223;28;20119;-71
2021/12/31 07:49:09;;;;;;;5.72;2.65;;;12.60;99.90;;;;;;5115699;28;20035;-71
2021/12/31 07:51:35;;;;;;;6.28;2.25;;;12.50;99.90;;;;;;5115624;28;20433;-71
2021/12/31 07:54:00;;;;;;;4.93;2.58;;;12.60;99.90;;;;;;5115281;28;20479;-71
2021/12/31 07:56:26;;;;;;;3.17;2.53;;;12.50;99.90;;;;;;5114738;28;20035;-70
2021/12/31 07:58:51;;;;;;;5.82;2.55;;;12.50;99.90;;;;;;5110535;28;20032;-71
2021/12/31 08:01:17;;;;;;;5.80;2.33;;;12.40;99.90;;;;;;5111242;28;20047;-71
2021/12/31 08:03:43;;;;;;;6.45;2.55;;;12.40;99.90;;;;;;5115178;28;20035;-71
2021/12/31 08:06:08;;;;;;;6.35;2.65;;;12.60;99.90;;;;;;5114594;28;20031;-70
2021/12/31 08:08:34;;;;;;;4.95;2.70;;;12.50;99.90;;;;;;5114686;28;20032;-71
2021/12/31 08:11:00;;;;;;;6.63;2.25;;;12.60;99.90;;;;;;5108223;28;20036;-71
2021/12/31 08:13:25;;;;;;;4.82;2.35;;;12.60;99.90;;;;;;5094342;28;20036;-71
2021/12/31 08:15:51;;;;;;;7.95;2.65;;;12.60;99.90;;;;;;5092523;28;20120;-71
2021/12/31 08:18:17;;;;;;;3.08;2.38;;;12.60;99.90;;;;;;5094046;28;20125;-71
2021/12/31 08:20:43;;;;;;;5.88;3.00;;;12.70;99.90;;;;;;5094269;28;20105;-71
2021/12/31 08:23:10;;;;;;;5.63;2.60;;;12.60;99.90;;;;;;5094092;28;20040;-71
2021/12/31 08:25:39;;;;;;;7.45;3.08;;;12.60;99.90;;;;;;5096799;28;20036;-71
2021/12/31 08:28:05;;;;;;;7.88;3.00;;;12.60;99.90;;;;;;5107804;27;20345;-71
2021/12/31 08:30:31;;;;;;;7.35;2.97;;;12.60;99.90;;;;;;5102129;28;20466;-71
2021/12/31 08:32:57;;;;;;;4.93;2.88;;;12.60;99.90;;;;;;5103459;28;20132;-70
2021/12/31 08:35:24;;;;;;;8.65;2.95;;;12.70;99.90;;;;;;5104604;28;20507;-71
2021/12/31 08:37:50;;;;;;;7.53;2.75;;;12.70;99.90;;;;;;5105710;28;20390;-70
2021/12/31 08:40:16;;;;;;;6.10;2.72;;;12.70;99.90;;;;;;5108441;28;20115;-71
2021/12/31 08:42:42;;;;;;;7.03;2.88;;;12.70;99.90;;;;;;5114179;28;20074;-71
2021/12/31 08:45:08;;;;;;;6.32;3.38;;;12.80;99.90;;;;;;5114410;28;20047;-70
2021/12/31 08:47:34;;;;;;;6.90;3.55;;;12.70;99.90;;;;;;5113694;28;20035;-69
2021/12/31 08:50:00;;;;;;;10.15;6.35;;;12.80;99.90;;;;;;5114009;28;20032;-70
2021/12/31 08:52:25;;;;;;;12.73;5.40;;;12.80;99.90;;;;;;5111393;28;20086;-70
2021/12/31 08:54:51;;;;;;;9.82;3.60;;;12.70;99.90;;;;;;5112992;28;20047;-70
2021/12/31 08:57:17;;;;;;;9.10;4.22;;;12.80;99.90;;;;;;5111554;28;20039;-70
2021/12/31 08:59:43;;;;;;;11.63;8.32;;;12.90;99.90;;;;;;5112620;28;20039;-70
2021/12/31 09:02:10;;;;;;;12.30;7.00;;;12.80;99.90;;;;;;5114500;28;20042;-70
2021/12/31 09:04:35;;;;;;;15.57;9.48;;;12.80;99.90;;;;;;5114504;28;20081;-70
2021/12/31 09:07:01;;;;;;;7.30;4.05;;;12.80;99.90;;;;;;5113386;28;20036;-70
2021/12/31 09:09:26;;;;;;;10.45;5.50;;;12.90;99.90;;;;;;5114460;28;20036;-70
2021/12/31 09:11:54;;;;;;;6.90;4.10;;;12.90;99.90;;;;;;5112446;28;20042;-70
2021/12/31 09:14:20;;;;;;;7.03;5.35;;;12.90;99.90;;;;;;5113905;28;20383;-70
2021/12/31 09:16:47;;;;;;;5.60;3.53;;;12.90;99.90;;;;;;5113900;28;20031;-69
2021/12/31 09:19:13;;;;;;;6.93;5.07;;;12.80;99.90;;;;;;5113960;28;20046;-70
2021/12/31 09:21:40;;;;;;;8.55;4.85;;;13.00;99.90;;;;;;5113785;28;20039;-70
2021/12/31 09:24:06;;;;;;;8.05;5.38;;;13.00;99.90;;;;;;5113481;28;20050;-69
2021/12/31 09:26:32;;;;;;;7.68;4.40;;;13.00;99.90;;;;;;5113502;28;20032;-69
2021/12/31 09:28:57;;;;;;;9.57;5.32;;;13.00;99.90;;;;;;5112895;28;20045;-69
2021/12/31 09:31:23;;;;;;;7.07;4.40;;;13.00;99.90;;;;;;5112333;28;20063;-69
2021/12/31 09:33:49;;;;;;;7.55;5.22;;;12.90;99.90;;;;;;5112552;28;20089;-69
2021/12/31 09:36:15;;;;;;;8.02;4.47;;;13.00;99.90;;;;;;5113231;28;20100;-70
2021/12/31 09:38:41;;;;;;;6.97;4.13;;;12.90;99.90;;;;;;5113958;28;20067;-70
2021/12/31 09:41:06;;;;;;;10.15;4.57;;;12.90;99.90;;;;;;5113774;28;20078;-69
2021/12/31 09:43:33;;;;;;;11.07;4.15;;;13.00;99.90;;;;;;5113788;28;20043;-69
2021/12/31 09:45:59;;;;;;;10.45;6.72;;;13.00;99.90;;;;;;5113289;28;20414;-69
2021/12/31 09:48:25;;;;;;;8.90;4.47;;;13.00;99.90;;;;;;5113769;28;20111;-69
2021/12/31 09:50:54;;;;;;;9.55;6.47;;;13.10;99.90;;;;;;5113525;28;20122;-70
2021/12/31 09:53:21;;;;;;;9.00;4.10;;;13.00;99.90;;;;;;5113967;28;20038;-69
2021/12/31 09:55:55;;;;;;;9.95;5.85;;;13.00;99.90;;;;;;5113123;28;20040;-69
2021/12/31 09:58:23;;;;;;;9.82;5.43;;;13.10;99.90;;;;;;5113609;28;20071;-70
2021/12/31 10:00:52;;;;;;;7.97;3.65;;;13.00;99.90;;;;;;5113846;28;20092;-69
2021/12/31 10:03:33;;;;;;;8.70;4.63;;;13.00;99.90;;;;;;5113386;28;20118;-70
2021/12/31 10:06:10;;;;;;;8.25;5.10;;;13.10;99.90;;;;;;5111867;28;20043;-69
2021/12/31 10:08:41;;;;;;;10.27;4.63;;;13.00;99.90;;;;;;5114329;28;20031;-70
2021/12/31 10:11:08;;;;;;;10.27;3.90;;;12.90;99.90;;;;;;5115543;28;20496;-70
2021/12/31 10:13:37;;;;;;;5.63;3.40;;;12.80;99.90;;;;;;5117436;28;20035;-67
2021/12/31 10:16:03;;;;;;;17.20;11.00;;;13.00;99.90;;;;;;5115811;28;20126;-67
2021/12/31 10:18:37;;;;;;;9.15;5.57;;;12.90;99.90;;;;;;5110394;28;20040;-67
2021/12/31 10:21:04;;;;;;;7.13;3.90;;;12.90;99.90;;;;;;5114570;28;20097;-67
2021/12/31 10:23:30;;;;;;;8.15;3.72;;;12.80;99.90;;;;;;5116840;28;20047;-67
2021/12/31 10:26:10;;;;;;;8.38;3.92;;;12.80;99.90;;;;;;5115100;28;20043;-67
2021/12/31 10:28:37;;;;;;;5.25;3.40;;;12.80;99.90;;;;;;5116742;28;20065;-67
2021/12/31 10:31:13;;;;;;;9.07;4.22;;;12.80;99.90;;;;;;5115624;28;20439;-67
2021/12/31 10:33:44;;;;;;;11.10;4.57;;;12.70;99.90;;;;;;5116546;28;20059;-67
2021/12/31 10:36:29;;;;;;;14.20;9.93;;;12.70;99.90;;;;;;5113769;28;20369;-67
2021/12/31 10:38:55;;;;;;;11.73;5.85;;;12.60;99.90;;;;;;5104709;28;20040;-68
2021/12/31 10:41:21;;;;;;;9.27;5.95;;;12.50;99.90;;;;;;5115814;28;20043;-67
2021/12/31 10:43:57;;;;;;;5.60;3.95;;;12.60;99.90;;;;;;5117094;28;20379;-67
2021/12/31 10:46:22;;;;;;;9.10;5.03;;;12.50;99.90;;;;;;5114804;28;20035;-67
2021/12/31 10:48:54;;;;;;;9.05;3.92;;;12.50;99.90;;;;;;5113246;28;20570;-67
2021/12/31 10:51:41;;;;;;;12.25;3.70;;;12.50;99.90;;;;;;5111669;28;20454;-67
2021/12/31 10:54:19;;;;;;;5.55;4.13;;;12.50;99.90;;;;;;5109593;28;20039;-67
2021/12/31 10:56:45;;;;;;;7.05;4.22;;;12.50;99.90;;;;;;5104887;28;20052;-67
2021/12/31 10:59:10;;;;;;;5.90;4.28;;;12.40;99.90;;;;;;5103840;28;20034;-67
2021/12/31 11:01:36;;;;;;;9.75;5.38;;;12.40;99.90;;;;;;5103775;28;20038;-67
2021/12/31 11:04:02;;;;;;;7.22;4.85;;;12.50;99.90;;;;;;5096320;28;20472;-67
2021/12/31 11:06:28;;;;;;;8.98;5.20;;;12.40;99.90;;;;;;5095419;28;20048;-67
2021/12/31 11:08:57;;;;;;;8.25;5.60;;;12.40;99.90;;;;;;5095722;28;20043;-67
2021/12/31 11:11:24;;;;;;;12.30;6.20;;;12.30;99.90;;;;;;5095654;28;20044;-67
2021/12/31 11:13:51;;;;;;;7.43;4.93;;;12.30;99.90;;;;;;5100301;28;20399;-67
2021/12/31 11:16:17;;;;;;;8.63;5.95;;;12.30;99.90;;;;;;5095443;28;20036;-67
2021/12/31 11:18:43;;;;;;;10.82;6.00;;;12.40;99.90;;;;;;5095755;28;20042;-67
2021/12/31 11:21:10;;;;;;;8.73;5.10;;;12.30;99.90;;;;;;5093550;28;20048;-67
2021/12/31 11:23:36;;;;;;;9.75;6.15;;;12.30;99.90;;;;;;5097419;27;20043;-67
2021/12/31 11:26:06;;;;;;;8.07;5.43;;;12.30;99.90;;;;;;5094939;28;20040;-67
2021/12/31 11:28:40;;;;;;;9.68;7.68;;;12.40;99.90;;;;;;5095193;28;20036;-67
2021/12/31 11:31:18;;;;;;;12.75;8.43;;;12.40;99.90;;;;;;5094099;28;20044;-67
2021/12/31 11:34:08;;;;;;;12.80;9.68;;;12.40;99.90;;;;;;5095053;28;20130;-67
2021/12/31 11:36:55;;;;;;;11.32;6.95;;;12.40;99.90;;;;;;5111428;28;20415;-68
2021/12/31 11:39:29;;;;;;;10.23;7.07;;;12.40;99.90;;;;;;5115616;28;20036;-67
2021/12/31 11:42:01;;;;;;;12.02;7.78;;;12.30;99.90;;;;;;5114097;28;20082;-67
2021/12/31 11:44:28;;;;;;;12.10;7.88;;;12.30;99.90;;;;;;5115516;28;20043;-67
2021/12/31 11:47:16;;;;;;;14.20;8.52;;;12.20;99.90;;;;;;5114826;28;20067;-67
2021/12/31 11:49:43;;;;;;;16.50;9.45;;;12.20;99.90;;;;;;5108888;28;20153;-67
2021/12/31 11:52:20;;;;;;;21.00;12.98;;;12.10;99.90;;;;;;5115160;28;20047;-67
2021/12/31 11:54:46;;;;;;;13.25;8.05;;;12.10;99.90;;;;;;5115278;28;20036;-68
2021/12/31 11:57:18;;;;;;;16.52;7.88;;;12.10;99.90;;;;;;5114955;28;20118;-68
2021/12/31 11:59:52;;;;;;;17.00;9.88;;;12.10;99.90;;;;;;5115110;28;20480;-68
2021/12/31 12:02:21;;;;;;;15.23;7.97;;;12.10;99.90;;;;;;5114734;28;20149;-68
2021/12/31 12:04:59;;;;;;;21.88;11.80;;;12.10;99.90;;;;;;5114772;28;20103;-68
2021/12/31 12:07:51;;;;;;;19.38;9.70;;;12.00;99.90;;;;;;5113378;28;20050;-68
2021/12/31 12:10:28;;;;;;;22.60;12.57;;;12.00;99.90;;;;;;5114949;28;20036;-68
2021/12/31 12:12:56;;;;;;;17.92;13.20;;;12.10;99.90;;;;;;5114480;28;20100;-68
2021/12/31 12:15:30;;;;;;;20.50;12.25;;;12.00;99.90;;;;;;5114669;28;20039;-68
2021/12/31 12:17:58;;;;;;;14.00;11.02;;;12.00;99.90;;;;;;5114961;28;20035;-68
2021/12/31 12:20:33;;;;;;;16.13;9.38;;;12.10;99.90;;;;;;5114951;28;20039;-68
2021/12/31 12:22:58;;;;;;;16.27;12.30;;;12.00;99.90;;;;;;5113767;28;20043;-68
2021/12/31 12:25:30;;;;;;;14.18;8.55;;;12.00;99.90;;;;;;5113670;28;20523;-67
2021/12/31 12:28:07;;;;;;;11.88;6.20;;;12.00;99.90;;;;;;5105470;28;20057;-68
2021/12/31 12:30:42;;;;;;;16.23;7.72;;;12.00;99.90;;;;;;5102140;28;20044;-68
2021/12/31 12:35:38;;;;;;;13.40;7.57;;;12.00;99.90;;;;;;5093533;28;20043;-68
2021/12/31 12:38:23;;;;;;;14.45;7.18;;;12.00;99.90;;;;;;5092599;28;20479;-68
2021/12/31 12:40:58;;;;;;;10.38;7.38;;;11.90;99.90;;;;;;5092613;28;20055;-68
2021/12/31 12:43:30;;;;;;;15.05;8.25;;;11.90;99.90;;;;;;5094358;28;20036;-68
2021/12/31 12:46:02;;;;;;;10.30;6.35;;;11.90;99.90;;;;;;5093261;28;20043;-68